createdAt,value
2018-09-02T00:03:37.200Z,8.30
2018-09-02T00:08:40.698Z,7.53
2018-09-02T00:13:44.409Z,7.97
2018-09-02T00:18:48.440Z,5.33
2018-09-02T00:23:52.052Z,4.67
2018-09-02T00:28:56.162Z,4.60
2018-09-02T00:33:59.996Z,5.45
2018-09-02T00:39:03.715Z,7.90
2018-09-02T00:44:07.742Z,5.03
2018-09-02T00:49:12.595Z,6.03
2018-09-02T00:54:16.099Z,5.75
2018-09-02T00:59:19.757Z,7.58
2018-09-02T01:04:23.658Z,5.28
2018-09-02T01:09:27.497Z,5.97
2018-09-02T01:14:31.106Z,5.50
2018-09-02T01:19:34.988Z,3.50
2018-09-02T01:24:38.605Z,3.62
2018-09-02T01:29:42.580Z,8.08
2018-09-02T01:34:46.485Z,6.08
2018-09-02T01:39:50.026Z,6.83
2018-09-02T01:44:53.489Z,4.87
2018-09-02T01:49:57.085Z,3.05
2018-09-02T01:55:00.586Z,4.75
2018-09-02T02:00:04.108Z,4.03
2018-09-02T02:05:07.900Z,4.40
2018-09-02T02:10:11.800Z,5.08
2018-09-02T02:15:15.349Z,4.93
2018-09-02T02:20:18.877Z,4.73
2018-09-02T02:25:22.483Z,5.73
2018-09-02T02:30:26.051Z,4.80
2018-09-02T02:35:29.947Z,6.28
2018-09-02T02:40:33.634Z,3.87
2018-09-02T02:45:37.147Z,3.75
2018-09-02T02:50:40.751Z,5.70
2018-09-02T02:55:44.278Z,6.80
2018-09-02T03:00:47.847Z,4.33
2018-09-02T03:05:51.504Z,6.15
2018-09-02T03:10:55.322Z,6.97
2018-09-02T03:15:59.024Z,9.08
2018-09-02T03:21:02.739Z,4.78
2018-09-02T03:26:06.477Z,5.60
2018-09-02T03:31:10.173Z,5.50
2018-09-02T03:36:13.683Z,3.12
2018-09-02T03:41:17.277Z,4.12
2018-09-02T03:46:20.786Z,4.53
2018-09-02T03:51:24.209Z,4.62
2018-09-02T03:56:27.696Z,5.28
2018-09-02T04:01:31.170Z,5.83
2018-09-02T04:06:35.112Z,4.87
2018-09-02T04:11:38.795Z,5.77
2018-09-02T04:16:42.296Z,3.20
2018-09-02T04:21:45.823Z,3.37
2018-09-02T04:26:49.663Z,3.72
2018-09-02T04:31:53.310Z,3.20
2018-09-02T04:36:56.801Z,4.75
2018-09-02T04:42:00.289Z,6.37
2018-09-02T04:47:03.986Z,3.15
2018-09-02T04:52:07.793Z,5.10
2018-09-02T04:57:11.289Z,3.42
2018-09-02T05:02:15.436Z,5.47
2018-09-02T05:07:19.043Z,3.67
2018-09-02T05:12:22.738Z,5.65
2018-09-02T05:17:28.231Z,4.80
2018-09-02T05:22:31.770Z,4.15
2018-09-02T05:27:35.288Z,5.03
2018-09-02T05:32:38.961Z,5.22
2018-09-02T05:37:42.811Z,3.30
2018-09-02T05:42:46.490Z,4.55
2018-09-02T05:47:50.740Z,6.65
2018-09-02T05:52:54.189Z,6.00
2018-09-02T05:57:57.738Z,4.12
2018-09-02T06:03:01.421Z,3.25
2018-09-02T06:08:04.916Z,5.50
2018-09-02T06:13:08.623Z,3.12
2018-09-02T06:18:12.244Z,4.80
2018-09-02T06:23:15.645Z,3.70
2018-09-02T06:28:19.377Z,6.33
2018-09-02T06:33:23.056Z,6.50
2018-09-02T06:38:26.513Z,7.12
2018-09-02T06:43:29.982Z,3.83
2018-09-02T06:48:33.515Z,3.60
2018-09-02T06:53:36.937Z,5.00
2018-09-02T06:58:40.411Z,3.42
2018-09-02T07:03:43.837Z,4.37
2018-09-02T07:08:47.309Z,5.12
2018-09-02T07:13:50.745Z,6.17
2018-09-02T07:18:54.217Z,4.53
2018-09-02T07:23:57.697Z,4.50
2018-09-02T07:29:01.150Z,8.67
2018-09-02T07:34:04.759Z,4.65
2018-09-02T07:39:09.176Z,4.20
2018-09-02T07:44:12.834Z,5.85
2018-09-02T07:49:16.248Z,5.20
2018-09-02T07:54:19.915Z,2.33
2018-09-02T07:59:23.378Z,2.55
2018-09-02T08:04:26.848Z,3.65
2018-09-02T08:09:30.561Z,2.52
2018-09-02T08:14:34.324Z,5.97
2018-09-02T08:19:37.825Z,3.50
2018-09-02T08:24:41.279Z,3.02
2018-09-02T08:29:44.690Z,2.60
2018-09-02T08:34:48.227Z,2.22
2018-09-02T08:39:51.699Z,2.72
2018-09-02T08:44:55.194Z,2.90
2018-09-02T08:49:58.645Z,3.25
2018-09-02T08:55:02.433Z,3.05
2018-09-02T09:00:07.068Z,2.47
2018-09-02T09:05:10.587Z,1.92
2018-09-02T09:10:14.823Z,3.43
2018-09-02T09:15:18.335Z,2.12
2018-09-02T09:20:21.938Z,3.03
2018-09-02T09:25:26.389Z,4.27
2018-09-02T09:30:29.899Z,2.67
2018-09-02T09:35:33.411Z,6.22
2018-09-02T09:40:36.927Z,2.45
2018-09-02T09:45:40.621Z,3.30
2018-09-02T09:50:44.102Z,1.82
2018-09-02T09:55:47.580Z,3.77
2018-09-02T10:00:52.442Z,2.92
2018-09-02T10:05:55.935Z,3.67
2018-09-02T10:10:59.452Z,2.37
2018-09-02T10:16:03.099Z,3.52
2018-09-02T10:21:06.523Z,3.73
2018-09-02T10:26:10.126Z,3.58
2018-09-02T10:31:14.316Z,3.70
2018-09-02T10:36:17.826Z,5.22
2018-09-02T10:41:21.549Z,9.40
2018-09-02T10:46:25.242Z,9.38
2018-09-02T10:51:28.709Z,9.68
2018-09-02T10:56:32.170Z,9.63
2018-09-02T11:01:35.889Z,8.58
2018-09-02T11:06:39.559Z,4.40
2018-09-02T11:11:43.342Z,5.87
2018-09-02T11:16:46.869Z,6.93
2018-09-02T11:21:50.382Z,5.73
2018-09-02T11:26:53.875Z,5.05
2018-09-02T11:31:57.331Z,5.37
2018-09-02T11:37:00.771Z,4.13
2018-09-02T11:42:04.469Z,4.83
2018-09-02T11:47:07.924Z,6.07
2018-09-02T11:52:11.398Z,4.43
2018-09-02T11:57:15.082Z,4.63
2018-09-02T12:02:18.939Z,6.65
2018-09-02T12:07:22.377Z,3.72
2018-09-02T12:12:25.842Z,4.97
2018-09-02T12:17:29.463Z,4.43
2018-09-02T12:22:33.921Z,3.95
2018-09-02T12:27:37.733Z,5.03
2018-09-02T12:32:43.092Z,4.35
2018-09-02T12:37:46.909Z,5.00
2018-09-02T12:42:50.627Z,6.25
2018-09-02T12:47:54.361Z,7.23
2018-09-02T12:52:57.982Z,5.60
2018-09-02T12:58:01.465Z,6.07
2018-09-02T13:03:06.138Z,9.27
2018-09-02T13:08:09.557Z,7.85
2018-09-02T13:13:13.241Z,6.97
2018-09-02T13:18:16.945Z,11.53
2018-09-02T13:23:20.691Z,10.53
2018-09-02T13:28:24.421Z,10.13
2018-09-02T13:33:28.256Z,9.85
2018-09-02T13:38:31.711Z,10.05
2018-09-02T13:43:35.143Z,14.07
2018-09-02T13:48:38.786Z,7.55
2018-09-02T13:53:42.278Z,9.10
2018-09-02T13:58:46.051Z,9.18
2018-09-02T14:03:49.661Z,10.50
2018-09-02T14:08:53.070Z,9.93
2018-09-02T14:13:56.574Z,8.30
2018-09-02T14:19:00.333Z,8.73
2018-09-02T14:24:04.197Z,11.73
2018-09-02T14:29:07.734Z,12.07
2018-09-02T14:34:11.217Z,9.63
2018-09-02T14:39:15.358Z,7.90
2018-09-02T14:44:18.810Z,16.50
2018-09-02T14:49:22.640Z,11.48
2018-09-02T14:54:26.136Z,13.40
2018-09-02T14:59:29.680Z,14.30
2018-09-02T15:04:33.121Z,14.87
2018-09-02T15:09:36.671Z,16.45
2018-09-02T15:14:40.286Z,15.00
2018-09-02T15:19:43.799Z,14.63
2018-09-02T15:24:47.254Z,16.02
2018-09-02T15:29:50.684Z,14.93
2018-09-02T15:34:54.526Z,14.73
2018-09-02T15:39:58.089Z,16.17
2018-09-02T15:45:02.288Z,17.73
2018-09-02T15:50:06.917Z,19.65
2018-09-02T15:55:10.537Z,20.68
2018-09-02T16:00:15.354Z,17.97
2018-09-02T16:05:19.743Z,20.43
2018-09-02T16:10:23.233Z,24.72
2018-09-02T16:15:26.726Z,21.10
2018-09-02T16:20:30.242Z,17.27
2018-09-02T16:25:33.675Z,17.35
2018-09-02T16:30:37.157Z,15.83
2018-09-02T16:35:40.635Z,17.67
2018-09-02T16:40:44.117Z,19.27
2018-09-02T16:45:47.965Z,21.50
2018-09-02T16:50:51.678Z,24.10
2018-09-02T16:55:55.158Z,19.97
2018-09-02T17:00:59.226Z,21.10
2018-09-02T17:06:03.798Z,18.80
2018-09-02T17:11:08.602Z,19.07
2018-09-02T17:16:13.594Z,22.27
2018-09-02T17:21:17.353Z,21.13
2018-09-02T17:26:22.043Z,23.63
2018-09-02T17:31:27.344Z,15.55
2018-09-02T17:36:30.834Z,18.87
2018-09-02T17:41:34.329Z,18.77
2018-09-02T17:46:38.681Z,14.63
2018-09-02T17:51:44.626Z,18.63
2018-09-02T17:56:49.025Z,18.95
2018-09-02T18:01:53.780Z,13.97
2018-09-02T18:06:57.504Z,13.22
2018-09-02T18:12:02.054Z,12.50
2018-09-02T18:17:07.025Z,11.20
2018-09-02T18:22:10.515Z,17.80
2018-09-02T18:27:16.877Z,12.23
2018-09-02T18:32:20.347Z,13.38
2018-09-02T18:37:25.586Z,12.45
2018-09-02T18:42:29.586Z,10.87
2018-09-02T18:47:34.948Z,12.85
2018-09-02T18:52:38.980Z,13.33
2018-09-02T18:57:42.683Z,13.63
2018-09-02T19:02:47.586Z,10.65
2018-09-02T19:07:51.093Z,11.85
2018-09-02T19:12:55.372Z,13.65
2018-09-02T19:17:59.294Z,12.40
2018-09-02T19:23:03.118Z,10.48
2018-09-02T19:28:07.051Z,14.03
2018-09-02T19:33:12.432Z,15.60
2018-09-02T19:38:17.429Z,12.47
2018-09-02T19:43:21.132Z,15.80
2018-09-02T19:48:24.943Z,12.50
2018-09-02T19:53:28.812Z,12.53
2018-09-02T19:58:32.771Z,13.88
2018-09-02T20:03:36.242Z,13.83
2018-09-02T20:08:41.507Z,13.03
2018-09-02T20:13:45.461Z,12.23
2018-09-02T20:18:51.545Z,15.07
2018-09-02T20:23:54.396Z,16.70
2018-09-02T20:29:00.512Z,13.22
2018-09-02T20:34:05.509Z,11.60
2018-09-02T20:39:10.899Z,13.65
2018-09-02T20:44:15.550Z,14.63
2018-09-02T20:49:20.098Z,13.77
2018-09-02T20:54:24.776Z,14.20
2018-09-02T20:59:29.541Z,13.43
2018-09-02T21:04:34.853Z,12.58
2018-09-02T21:09:40.053Z,14.13
2018-09-02T21:14:43.749Z,11.53
2018-09-02T21:19:49.124Z,11.70
2018-09-02T21:24:54.938Z,11.60
2018-09-02T21:29:59.941Z,13.95
2018-09-02T21:35:06.629Z,10.43
2018-09-02T21:40:10.158Z,11.88
2018-09-02T21:45:14.931Z,10.43
2018-09-02T21:50:18.602Z,12.60
2018-09-02T21:55:22.735Z,12.90
2018-09-02T22:00:26.296Z,11.97
2018-09-02T22:05:30.790Z,10.15
2018-09-02T22:10:34.297Z,10.78
2018-09-02T22:15:39.163Z,11.88
2018-09-02T22:20:42.689Z,10.67
2018-09-02T22:25:45.371Z,10.23
2018-09-02T22:30:48.792Z,11.45
2018-09-02T22:35:52.321Z,12.68
2018-09-02T22:40:55.905Z,12.25
2018-09-02T22:45:59.405Z,9.53
2018-09-02T22:51:03.073Z,13.08
2018-09-02T22:56:06.665Z,12.47
2018-09-02T23:01:10.314Z,9.53
2018-09-02T23:06:13.821Z,9.85
2018-09-02T23:11:17.337Z,12.15
2018-09-02T23:16:20.842Z,8.00
2018-09-02T23:21:24.353Z,12.00
2018-09-02T23:26:27.919Z,9.08
2018-09-02T23:31:31.389Z,9.65
2018-09-02T23:36:35.035Z,9.23
2018-09-02T23:41:38.534Z,8.03
2018-09-02T23:46:42.042Z,9.68
2018-09-02T23:51:45.621Z,9.30
2018-09-02T23:56:49.300Z,13.73
